createdAt,value
2018-02-18T00:00:44.041Z,15.83
2018-02-18T00:03:11.293Z,17.03
2018-02-18T00:05:38.953Z,15.50
2018-02-18T00:08:06.526Z,14.30
2018-02-18T00:10:33.866Z,16.20
2018-02-18T00:13:02.170Z,14.27
2018-02-18T00:15:29.185Z,15.90
2018-02-18T00:17:56.148Z,14.63
2018-02-18T00:20:23.721Z,14.07
2018-02-18T00:22:50.719Z,17.30
2018-02-18T00:25:17.425Z,14.57
2018-02-18T00:27:44.405Z,17.20
2018-02-18T00:30:10.700Z,16.07
2018-02-18T00:32:37.441Z,14.47
2018-02-18T00:35:05.181Z,13.77
2018-02-18T00:37:31.425Z,15.53
2018-02-18T00:39:57.723Z,15.60
2018-02-18T00:42:24.049Z,15.67
2018-02-18T00:44:50.860Z,16.30
2018-02-18T00:47:18.377Z,15.00
2018-02-18T00:49:44.652Z,14.33
2018-02-18T00:52:11.777Z,15.20
2018-02-18T00:54:38.571Z,14.17
2018-02-18T00:57:05.951Z,15.50
2018-02-18T00:59:33.022Z,13.10
2018-02-18T01:02:00.433Z,15.07
2018-02-18T01:04:27.105Z,14.60
2018-02-18T01:06:54.651Z,13.00
2018-02-18T01:09:21.401Z,14.03
2018-02-18T01:11:48.380Z,13.53
2018-02-18T01:14:15.099Z,17.50
2018-02-18T01:16:42.093Z,13.40
2018-02-18T01:19:08.897Z,14.20
2018-02-18T01:21:36.325Z,14.20
2018-02-18T01:24:02.588Z,13.20
2018-02-18T01:26:30.026Z,12.30
2018-02-18T01:28:56.266Z,13.07
2018-02-18T01:31:22.523Z,12.50
2018-02-18T01:33:50.172Z,13.10
2018-02-18T01:36:17.897Z,12.43
2018-02-18T01:38:44.612Z,10.63
2018-02-18T01:41:11.601Z,9.53
2018-02-18T01:43:37.889Z,11.00
2018-02-18T01:46:05.225Z,10.73
2018-02-18T01:48:31.892Z,11.67
2018-02-18T01:50:58.892Z,11.87
2018-02-18T01:53:25.148Z,11.43
2018-02-18T01:55:51.462Z,11.27
2018-02-18T01:58:18.273Z,11.90
2018-02-18T02:00:45.257Z,15.17
2018-02-18T02:03:11.497Z,11.40
2018-02-18T02:05:38.300Z,12.90
2018-02-18T02:08:05.297Z,12.43
2018-02-18T02:10:32.194Z,12.97
2018-02-18T02:12:59.865Z,13.47
2018-02-18T02:15:27.473Z,13.07
2018-02-18T02:17:54.281Z,11.30
2018-02-18T02:20:21.778Z,12.50
2018-02-18T02:22:48.444Z,11.30
2018-02-18T02:25:15.525Z,11.63
2018-02-18T02:27:42.505Z,11.60
2018-02-18T02:30:08.778Z,10.70
2018-02-18T02:32:35.396Z,12.40
2018-02-18T02:35:01.644Z,10.80
2018-02-18T02:37:27.932Z,11.20
2018-02-18T02:39:55.293Z,11.33
2018-02-18T02:42:22.282Z,11.80
2018-02-18T02:44:49.305Z,13.40
2018-02-18T02:47:16.751Z,11.40
2018-02-18T02:49:43.729Z,9.73
2018-02-18T02:52:09.974Z,11.07
2018-02-18T02:54:36.586Z,10.43
2018-02-18T02:57:04.053Z,10.00
2018-02-18T02:59:31.500Z,9.57
2018-02-18T03:01:58.547Z,8.60
2018-02-18T03:04:26.028Z,10.00
2018-02-18T03:06:53.489Z,9.17
2018-02-18T03:09:20.473Z,10.93
2018-02-18T03:11:46.720Z,11.40
2018-02-18T03:14:13.593Z,10.80
2018-02-18T03:16:40.203Z,11.80
2018-02-18T03:19:06.961Z,12.77
2018-02-18T03:21:33.761Z,13.83
2018-02-18T03:24:00.805Z,13.83
2018-02-18T03:26:27.761Z,13.60
2018-02-18T03:28:54.742Z,14.07
2018-02-18T03:31:20.998Z,14.60
2018-02-18T03:33:47.641Z,12.60
2018-02-18T03:36:13.881Z,12.10
2018-02-18T03:38:40.173Z,11.47
2018-02-18T03:41:06.449Z,11.93
2018-02-18T03:43:32.694Z,12.90
2018-02-18T03:46:00.429Z,11.93
2018-02-18T03:48:27.449Z,12.63
2018-02-18T03:50:54.436Z,12.43
2018-02-18T03:53:21.246Z,12.77
2018-02-18T03:55:48.283Z,13.57
2018-02-18T03:58:14.905Z,13.87
2018-02-18T04:00:41.162Z,13.90
2018-02-18T04:03:07.413Z,11.97
2018-02-18T04:05:35.060Z,11.80
2018-02-18T04:08:01.431Z,11.30
2018-02-18T04:10:27.681Z,11.50
2018-02-18T04:12:54.500Z,13.30
2018-02-18T04:15:22.004Z,13.10
2018-02-18T04:17:48.713Z,13.23
2018-02-18T04:20:16.352Z,13.40
2018-02-18T04:22:42.593Z,13.00
2018-02-18T04:25:10.050Z,14.10
2018-02-18T04:27:36.652Z,13.40
2018-02-18T04:30:03.857Z,12.27
2018-02-18T04:32:31.184Z,12.10
2018-02-18T04:34:57.428Z,13.50
2018-02-18T04:37:23.657Z,12.93
2018-02-18T04:39:49.961Z,12.70
2018-02-18T04:42:16.214Z,13.60
2018-02-18T04:44:43.217Z,12.57
2018-02-18T04:47:11.185Z,11.73
2018-02-18T04:49:38.173Z,12.63
2018-02-18T04:52:04.867Z,11.87
2018-02-18T04:54:31.115Z,12.70
2018-02-18T04:56:58.095Z,14.17
2018-02-18T04:59:24.713Z,14.00
2018-02-18T05:01:52.041Z,14.00
2018-02-18T05:04:19.333Z,12.90
2018-02-18T05:06:46.321Z,13.20
2018-02-18T05:09:13.011Z,14.60
2018-02-18T05:11:39.625Z,14.63
2018-02-18T05:14:07.025Z,15.07
2018-02-18T05:16:34.449Z,14.80
2018-02-18T05:19:01.101Z,16.17
2018-02-18T05:21:27.924Z,14.73
2018-02-18T05:23:54.153Z,17.33
2018-02-18T05:26:21.264Z,15.70
2018-02-18T05:28:48.251Z,15.60
2018-02-18T05:31:14.508Z,15.80
2018-02-18T05:33:41.289Z,16.17
2018-02-18T05:36:07.524Z,14.67
2018-02-18T05:38:34.974Z,16.97
2018-02-18T05:41:01.235Z,15.03
2018-02-18T05:43:28.217Z,16.57
2018-02-18T05:45:55.339Z,16.47
2018-02-18T05:48:22.910Z,15.83
2018-02-18T05:50:49.899Z,16.90
2018-02-18T05:53:16.148Z,16.33
2018-02-18T05:55:42.734Z,16.63
2018-02-18T05:58:11.421Z,15.67
2018-02-18T06:00:38.418Z,14.70
2018-02-18T06:03:04.682Z,15.97
2018-02-18T06:05:31.456Z,17.40
2018-02-18T06:07:58.818Z,15.17
2018-02-18T06:10:26.161Z,15.60
2018-02-18T06:12:53.625Z,16.63
2018-02-18T06:15:19.865Z,14.30
2018-02-18T06:17:47.435Z,15.57
2018-02-18T06:20:15.556Z,17.10
2018-02-18T06:22:41.811Z,15.93
2018-02-18T06:25:08.606Z,15.70
2018-02-18T06:27:50.513Z,15.77
2018-02-18T06:30:16.781Z,17.23
2018-02-18T06:32:43.419Z,13.77
2018-02-18T06:35:10.297Z,14.40
2018-02-18T06:37:36.569Z,16.20
2018-02-18T06:40:02.841Z,17.50
2018-02-18T06:42:29.507Z,16.73
2018-02-18T06:44:56.377Z,16.63
2018-02-18T06:47:23.785Z,15.20
2018-02-18T06:49:50.036Z,14.70
2018-02-18T06:52:16.323Z,14.93
2018-02-18T06:54:43.318Z,13.87
2018-02-18T06:57:09.993Z,13.53
2018-02-18T06:59:36.228Z,12.77
2018-02-18T07:02:03.231Z,11.67
2018-02-18T07:04:29.913Z,12.97
2018-02-18T07:06:56.780Z,14.80
2018-02-18T07:09:23.819Z,12.00
2018-02-18T07:11:50.050Z,14.50
2018-02-18T07:14:18.545Z,13.70
2018-02-18T07:16:44.784Z,14.23
2018-02-18T07:19:12.097Z,13.23
2018-02-18T07:21:38.793Z,13.33
2018-02-18T07:24:05.785Z,12.67
2018-02-18T07:26:32.494Z,12.87
2018-02-18T07:28:59.482Z,12.00
2018-02-18T07:31:25.737Z,14.10
2018-02-18T07:33:52.399Z,13.87
2018-02-18T07:36:19.772Z,14.67
2018-02-18T07:38:46.019Z,15.10
2018-02-18T07:41:12.996Z,11.97
2018-02-18T07:43:39.716Z,12.80
2018-02-18T07:46:07.153Z,11.50
2018-02-18T07:48:34.147Z,13.13
2018-02-18T07:51:00.414Z,12.27
2018-02-18T07:53:26.990Z,11.30
2018-02-18T07:55:53.988Z,10.50
2018-02-18T07:58:20.233Z,14.50
2018-02-18T08:00:46.849Z,14.50
2018-02-18T08:03:14.248Z,13.33
2018-02-18T08:05:41.131Z,11.50
2018-02-18T08:08:08.121Z,15.00
2018-02-18T08:10:35.048Z,15.80
2018-02-18T08:13:02.602Z,15.03
2018-02-18T08:15:29.632Z,15.70
2018-02-18T08:17:56.401Z,16.27
2018-02-18T08:20:23.772Z,14.37
2018-02-18T08:22:50.785Z,15.90
2018-02-18T08:25:17.469Z,15.93
2018-02-18T08:27:44.462Z,18.00
2018-02-18T08:30:10.772Z,16.13
2018-02-18T08:32:39.018Z,16.33
2018-02-18T08:35:06.011Z,16.17
2018-02-18T08:37:32.258Z,13.90
2018-02-18T08:39:58.853Z,14.50
2018-02-18T08:42:26.404Z,11.17
2018-02-18T08:44:53.261Z,12.40
2018-02-18T08:47:20.265Z,14.50
2018-02-18T08:49:46.921Z,13.90
2018-02-18T08:52:13.720Z,12.20
2018-02-18T08:54:40.026Z,18.33
2018-02-18T08:57:06.281Z,19.30
2018-02-18T08:59:33.772Z,17.83
2018-02-18T09:02:00.512Z,14.90
2018-02-18T09:04:27.329Z,17.37
2018-02-18T09:06:54.321Z,15.80
2018-02-18T09:09:20.566Z,13.73
2018-02-18T09:11:46.834Z,16.60
2018-02-18T09:14:13.777Z,13.53
2018-02-18T09:16:40.071Z,11.90
2018-02-18T09:19:06.954Z,12.33
2018-02-18T09:21:33.606Z,13.97
2018-02-18T09:23:59.857Z,13.70
2018-02-18T09:26:26.474Z,16.07
2018-02-18T09:28:52.732Z,14.80
2018-02-18T09:31:18.981Z,16.10
2018-02-18T09:33:46.414Z,15.07
2018-02-18T09:36:12.685Z,15.97
2018-02-18T09:38:39.515Z,13.40
2018-02-18T09:41:05.751Z,14.20
2018-02-18T09:43:32.746Z,13.20
2018-02-18T09:46:00.471Z,15.50
2018-02-18T09:48:28.001Z,15.13
2018-02-18T09:50:54.655Z,13.20
2018-02-18T09:53:20.898Z,13.73
2018-02-18T09:55:48.293Z,14.60
2018-02-18T09:58:15.029Z,15.43
2018-02-18T10:00:42.573Z,15.90
2018-02-18T10:03:08.844Z,15.03
2018-02-18T10:05:35.776Z,16.70
2018-02-18T10:08:02.780Z,14.77
2018-02-18T10:10:29.641Z,15.07
2018-02-18T10:12:56.525Z,16.80
2018-02-18T10:15:23.506Z,14.83
2018-02-18T10:17:50.325Z,14.40
2018-02-18T10:20:17.807Z,28.00
2018-02-18T10:22:44.097Z,19.13
2018-02-18T10:25:10.726Z,18.00
2018-02-18T10:27:38.469Z,16.53
2018-02-18T10:30:04.714Z,16.00
2018-02-18T10:32:31.403Z,15.23
2018-02-18T10:34:58.394Z,20.20
2018-02-18T10:37:24.987Z,25.80
2018-02-18T10:39:51.233Z,16.97
2018-02-18T10:42:18.262Z,17.13
2018-02-18T10:44:46.075Z,16.80
2018-02-18T10:47:12.894Z,21.00
2018-02-18T10:49:39.530Z,18.57
2018-02-18T10:52:06.891Z,17.77
2018-02-18T10:54:33.537Z,21.20
2018-02-18T10:57:00.385Z,22.40
2018-02-18T10:59:26.633Z,17.90
2018-02-18T11:01:53.628Z,28.00
2018-02-18T11:04:20.449Z,16.27
2018-02-18T11:06:46.705Z,18.47
2018-02-18T11:09:12.953Z,18.70
2018-02-18T11:11:39.219Z,16.30
2018-02-18T11:14:05.995Z,18.70
2018-02-18T11:16:32.993Z,16.27
2018-02-18T11:18:59.740Z,17.07
2018-02-18T11:21:26.429Z,15.03
2018-02-18T11:23:54.293Z,19.73
2018-02-18T11:26:21.624Z,16.30
2018-02-18T11:28:47.878Z,14.90
2018-02-18T11:31:14.137Z,17.23
2018-02-18T11:33:41.558Z,18.50
2018-02-18T11:36:08.547Z,15.73
2018-02-18T11:38:35.542Z,21.93
2018-02-18T11:41:02.323Z,18.37
2018-02-18T11:43:29.064Z,16.77
2018-02-18T11:45:57.259Z,13.53
2018-02-18T11:48:24.241Z,13.30
2018-02-18T11:50:51.884Z,14.53
2018-02-18T11:53:19.605Z,15.60
2018-02-18T11:55:46.393Z,15.90
2018-02-18T11:58:13.387Z,13.47
2018-02-18T12:00:39.643Z,12.33
2018-02-18T12:03:05.910Z,13.43
2018-02-18T12:05:33.473Z,15.00
2018-02-18T12:08:00.468Z,16.60
2018-02-18T12:10:26.715Z,15.33
2018-02-18T12:12:53.710Z,18.97
2018-02-18T12:15:20.693Z,18.47
2018-02-18T12:17:47.758Z,17.33
2018-02-18T12:20:14.526Z,15.20
2018-02-18T12:22:40.765Z,15.60
2018-02-18T12:25:07.549Z,17.33
2018-02-18T12:27:34.546Z,17.30
2018-02-18T12:30:00.797Z,13.17
2018-02-18T12:32:27.572Z,13.60
2018-02-18T12:34:53.940Z,13.07
2018-02-18T12:37:20.187Z,14.87
2018-02-18T12:39:46.454Z,16.60
2018-02-18T12:42:13.110Z,17.60
2018-02-18T12:44:39.366Z,16.83
2018-02-18T12:47:07.025Z,17.00
2018-02-18T12:49:33.775Z,18.17
2018-02-18T12:52:01.655Z,15.77
2018-02-18T12:54:28.636Z,16.10
2018-02-18T12:56:54.929Z,16.67
2018-02-18T12:59:22.291Z,17.27
2018-02-18T13:01:49.256Z,17.10
2018-02-18T13:04:16.323Z,15.40
2018-02-18T13:06:42.574Z,15.63
2018-02-18T13:09:08.823Z,18.30
2018-02-18T13:11:35.059Z,15.13
2018-02-18T13:14:02.030Z,18.10
2018-02-18T13:16:29.007Z,19.87
2018-02-18T13:18:56.435Z,17.03
2018-02-18T13:21:22.679Z,16.07
2018-02-18T13:23:48.931Z,14.10
2018-02-18T13:26:16.350Z,13.80
2018-02-18T13:28:43.027Z,15.40
2018-02-18T13:31:09.957Z,17.87
2018-02-18T13:33:36.635Z,15.80
2018-02-18T13:36:03.643Z,15.53
2018-02-18T13:38:29.891Z,16.90
2018-02-18T13:40:56.526Z,15.07
2018-02-18T13:43:22.763Z,18.57
2018-02-18T13:45:49.419Z,18.20
2018-02-18T13:48:16.070Z,17.47
2018-02-18T13:50:42.693Z,16.80
2018-02-18T13:53:08.947Z,15.40
2018-02-18T13:55:35.189Z,18.90
2018-02-18T13:58:02.184Z,15.77
2018-02-18T14:00:28.442Z,17.43
2018-02-18T14:02:54.844Z,15.20
2018-02-18T14:05:21.414Z,14.20
2018-02-18T14:07:47.655Z,15.43
2018-02-18T14:10:13.908Z,12.93
2018-02-18T14:12:40.179Z,13.80
2018-02-18T14:15:06.803Z,13.50
2018-02-18T14:17:33.782Z,14.03
2018-02-18T14:20:00.612Z,14.90
2018-02-18T14:22:28.003Z,13.73
2018-02-18T14:24:54.707Z,12.47
2018-02-18T14:27:22.475Z,11.77
2018-02-18T14:29:49.451Z,16.00
2018-02-18T14:32:16.113Z,16.20
2018-02-18T14:34:43.027Z,13.57
2018-02-18T14:37:10.027Z,11.70
2018-02-18T14:39:36.278Z,11.37
2018-02-18T14:42:14.780Z,12.60
2018-02-18T14:44:55.284Z,16.37
2018-02-18T14:47:48.801Z,19.30
2018-02-18T14:50:27.260Z,16.70
2018-02-18T14:53:07.124Z,17.90
2018-02-18T14:55:45.527Z,17.30
2018-02-18T14:58:11.795Z,15.17
2018-02-18T15:00:38.579Z,15.23
2018-02-18T15:03:04.811Z,14.73
2018-02-18T15:05:31.174Z,17.20
2018-02-18T15:07:58.174Z,20.53
2018-02-18T15:10:24.444Z,16.23
2018-02-18T15:12:51.806Z,16.27
2018-02-18T15:15:18.827Z,14.80
2018-02-18T15:17:45.662Z,15.87
2018-02-18T15:20:12.651Z,14.70
2018-02-18T15:22:38.874Z,16.77
2018-02-18T15:25:05.538Z,17.40
2018-02-18T15:27:32.582Z,17.50
2018-02-18T15:29:58.828Z,17.93
2018-02-18T15:32:25.555Z,16.70
2018-02-18T15:34:52.579Z,13.97
2018-02-18T15:37:19.491Z,12.70
2018-02-18T15:39:46.110Z,12.07
2018-02-18T15:42:13.682Z,14.20
2018-02-18T15:44:40.678Z,16.60
2018-02-18T15:47:07.378Z,16.30
2018-02-18T15:49:34.811Z,12.80
2018-02-18T15:52:02.966Z,19.20
2018-02-18T15:54:29.219Z,16.60
2018-02-18T15:56:55.487Z,13.40
2018-02-18T15:59:22.484Z,13.20
2018-02-18T16:01:48.763Z,15.40
2018-02-18T16:04:15.140Z,12.60
2018-02-18T16:06:41.747Z,14.60
2018-02-18T16:09:08.739Z,12.40
2018-02-18T16:11:35.011Z,14.30
2018-02-18T16:14:02.558Z,12.03
2018-02-18T16:16:29.238Z,11.40
2018-02-18T16:18:55.846Z,13.67
2018-02-18T16:21:22.105Z,12.67
2018-02-18T16:23:49.554Z,14.40
2018-02-18T16:26:16.223Z,17.73
2018-02-18T16:28:43.209Z,14.53
2018-02-18T16:31:09.453Z,13.10
2018-02-18T16:33:36.334Z,12.50
2018-02-18T16:36:03.203Z,11.97
2018-02-18T16:38:29.491Z,13.17
2018-02-18T16:40:56.401Z,12.97
2018-02-18T16:43:23.773Z,12.30
2018-02-18T16:45:50.603Z,11.30
2018-02-18T16:48:17.590Z,13.47
2018-02-18T16:50:44.285Z,14.27
2018-02-18T16:53:10.538Z,18.63
2018-02-18T16:55:37.518Z,15.40
2018-02-18T16:58:04.027Z,14.13
2018-02-18T17:00:31.471Z,17.50
2018-02-18T17:02:57.713Z,19.07
2018-02-18T17:05:23.958Z,18.70
2018-02-18T17:07:50.971Z,18.93
2018-02-18T17:10:17.227Z,18.40
2018-02-18T17:12:45.325Z,14.33
2018-02-18T17:15:12.780Z,13.20
2018-02-18T17:17:39.826Z,14.30
2018-02-18T17:20:06.471Z,21.50
2018-02-18T17:22:33.818Z,21.10
2018-02-18T17:25:01.185Z,21.07
2018-02-18T17:27:27.433Z,15.93
2018-02-18T17:29:55.045Z,17.20
2018-02-18T17:32:21.747Z,18.00
2018-02-18T17:34:48.737Z,14.40
2018-02-18T17:37:15.537Z,22.47
2018-02-18T17:39:42.505Z,26.20
2018-02-18T17:42:09.411Z,24.27
2018-02-18T17:44:35.677Z,18.53
2018-02-18T17:47:03.241Z,17.40
2018-02-18T17:49:30.247Z,18.03
2018-02-18T17:51:56.524Z,25.90
2018-02-18T17:54:23.529Z,22.40
2018-02-18T17:56:49.809Z,20.20
2018-02-18T17:59:16.901Z,23.50
2018-02-18T18:01:43.619Z,22.93
2018-02-18T18:04:11.072Z,16.50
2018-02-18T18:06:38.057Z,17.80
2018-02-18T18:09:04.778Z,19.27
2018-02-18T18:11:31.772Z,19.80
2018-02-18T18:13:58.555Z,14.90
2018-02-18T18:16:24.809Z,15.03
2018-02-18T18:18:52.161Z,19.60
2018-02-18T18:21:19.218Z,23.50
2018-02-18T18:23:46.861Z,19.30
2018-02-18T18:26:13.829Z,16.33
2018-02-18T18:28:41.309Z,17.40
2018-02-18T18:31:08.298Z,17.73
2018-02-18T18:33:35.086Z,16.07
2018-02-18T18:36:01.741Z,17.47
2018-02-18T18:38:29.063Z,17.27
2018-02-18T18:40:55.320Z,16.37
2018-02-18T18:43:21.667Z,16.80
2018-02-18T18:45:49.298Z,17.60
2018-02-18T18:48:15.842Z,21.10
2018-02-18T18:50:42.085Z,17.40
2018-02-18T18:53:09.059Z,21.20
2018-02-18T18:55:36.877Z,26.30
2018-02-18T18:58:03.122Z,24.33
2018-02-18T19:00:30.184Z,23.70
2018-02-18T19:02:56.425Z,22.67
2018-02-18T19:05:23.165Z,24.17
2018-02-18T19:07:49.425Z,26.63
2018-02-18T19:10:15.695Z,21.47
2018-02-18T19:12:41.971Z,17.80
2018-02-18T19:15:08.610Z,17.13
2018-02-18T19:17:34.877Z,27.77
2018-02-18T19:20:02.235Z,26.17
2018-02-18T19:22:28.994Z,24.20
2018-02-18T19:24:56.546Z,19.13
2018-02-18T19:27:23.614Z,15.87
2018-02-18T19:29:50.654Z,19.27
2018-02-18T19:32:18.060Z,18.00
2018-02-18T19:34:44.684Z,16.07
2018-02-18T19:37:11.602Z,17.33
2018-02-18T19:39:37.862Z,18.50
2018-02-18T19:42:04.902Z,16.70
2018-02-18T19:44:31.904Z,14.97
2018-02-18T19:46:58.756Z,15.47
2018-02-18T19:49:25.034Z,13.83
2018-02-18T19:51:52.029Z,19.60
2018-02-18T19:54:18.826Z,12.30
2018-02-18T19:56:45.837Z,15.50
2018-02-18T19:59:12.191Z,14.03
2018-02-18T20:01:38.964Z,14.47
2018-02-18T20:04:06.435Z,16.37
2018-02-18T20:06:33.435Z,13.27
2018-02-18T20:08:59.739Z,13.80
2018-02-18T20:11:26.057Z,16.40
2018-02-18T20:13:53.421Z,14.77
2018-02-18T20:16:20.430Z,12.53
2018-02-18T20:18:47.345Z,10.90
2018-02-18T20:21:13.671Z,13.87
2018-02-18T20:23:40.465Z,15.90
2018-02-18T20:26:07.124Z,15.03
2018-02-18T20:28:34.133Z,19.27
2018-02-18T20:31:00.941Z,18.97
2018-02-18T20:33:28.514Z,16.90
2018-02-18T20:35:55.513Z,17.70
2018-02-18T20:38:22.153Z,19.07
2018-02-18T20:40:48.851Z,17.50
2018-02-18T20:43:15.113Z,16.43
2018-02-18T20:45:41.938Z,17.30
2018-02-18T20:48:08.220Z,16.10
2018-02-18T20:50:34.502Z,13.77
2018-02-18T20:53:01.554Z,13.57
2018-02-18T20:55:28.685Z,12.60
2018-02-18T20:57:55.690Z,16.90
2018-02-18T21:00:22.917Z,15.30
2018-02-18T21:02:49.915Z,18.80
2018-02-18T21:05:16.668Z,12.90
2018-02-18T21:07:42.921Z,13.20
2018-02-18T21:10:11.328Z,12.00
2018-02-18T21:12:38.370Z,12.77
2018-02-18T21:15:05.091Z,13.97
2018-02-18T21:17:31.507Z,15.83
2018-02-18T21:19:58.180Z,13.60
2018-02-18T21:22:24.434Z,17.60
2018-02-18T21:24:51.997Z,13.97
2018-02-18T21:27:18.994Z,18.30
2018-02-18T21:29:45.770Z,15.13
2018-02-18T21:32:12.546Z,12.73
2018-02-18T21:34:39.530Z,17.17
2018-02-18T21:37:05.788Z,22.70
2018-02-18T21:39:32.578Z,17.50
2018-02-18T21:41:59.573Z,19.10
2018-02-18T21:44:25.827Z,16.50
2018-02-18T21:46:52.720Z,15.63
2018-02-18T21:49:19.705Z,20.63
2018-02-18T21:51:45.980Z,22.10
2018-02-18T21:54:12.649Z,19.90
2018-02-18T21:56:39.644Z,13.83
2018-02-18T21:59:05.967Z,12.00
2018-02-18T22:01:32.577Z,20.77
2018-02-18T22:03:59.557Z,10.20
2018-02-18T22:06:25.898Z,21.43
2018-02-18T22:08:52.580Z,14.23
2018-02-18T22:11:18.832Z,14.37
2018-02-18T22:13:46.365Z,9.73
2018-02-18T22:16:12.620Z,12.57
2018-02-18T22:18:41.130Z,11.97
2018-02-18T22:21:08.185Z,8.03
2018-02-18T22:23:35.777Z,7.87
2018-02-18T22:26:02.594Z,11.63
2018-02-18T22:28:29.196Z,10.07
2018-02-18T22:30:56.095Z,10.40
2018-02-18T22:33:23.545Z,8.30
2018-02-18T22:35:50.537Z,7.97
2018-02-18T22:38:16.791Z,7.93
2018-02-18T22:40:43.068Z,9.53
2018-02-18T22:43:10.121Z,8.00
2018-02-18T22:45:37.267Z,9.20
2018-02-18T22:48:04.225Z,10.57
2018-02-18T22:50:31.221Z,14.10
2018-02-18T22:52:58.211Z,16.60
2018-02-18T22:55:24.446Z,10.40
2018-02-18T22:57:50.692Z,9.53
2018-02-18T23:00:19.185Z,12.37
2018-02-18T23:02:46.180Z,11.30
2018-02-18T23:05:19.537Z,10.00
2018-02-18T23:07:46.530Z,7.93
2018-02-18T23:10:12.790Z,8.63
2018-02-18T23:12:39.565Z,8.20
2018-02-18T23:15:07.085Z,7.10
2018-02-18T23:17:33.338Z,9.30
2018-02-18T23:20:00.113Z,6.77
2018-02-18T23:22:27.600Z,6.00
2018-02-18T23:24:54.352Z,5.63
2018-02-18T23:27:21.050Z,5.20
2018-02-18T23:29:48.715Z,7.60
2018-02-18T23:32:15.434Z,8.97
2018-02-18T23:34:41.673Z,9.10
2018-02-18T23:37:07.946Z,6.13
2018-02-18T23:39:35.446Z,6.90
2018-02-18T23:42:01.695Z,6.50
2018-02-18T23:44:27.987Z,6.87
2018-02-18T23:46:54.689Z,7.27
2018-02-18T23:49:20.947Z,6.67
2018-02-18T23:51:48.213Z,6.53
2018-02-18T23:54:15.676Z,7.53
2018-02-18T23:56:42.715Z,8.30
2018-02-18T23:59:08.946Z,8.87
